sensor_id;sensor_type;location;lat;lon;timestamp;P1;durP1;ratioP1;P2;durP2;ratioP2
21128;SDS011;10722;51.910;8.352;2022-09-25T00:00:22;64.22;;;41.35;;
21128;SDS011;10722;51.910;8.352;2022-09-25T00:03:09;71.00;;;43.42;;
21128;SDS011;10722;51.910;8.352;2022-09-25T00:06:02;75.72;;;46.70;;
21128;SDS011;10722;51.910;8.352;2022-09-25T00:09:05;71.85;;;44.85;;
21128;SDS011;10722;51.910;8.352;2022-09-25T00:11:54;70.85;;;44.28;;
21128;SDS011;10722;51.910;8.352;2022-09-25T00:14:39;69.85;;;42.53;;
21128;SDS011;10722;51.910;8.352;2022-09-25T00:17:24;66.43;;;42.67;;
21128;SDS011;10722;51.910;8.352;2022-09-25T00:20:09;73.05;;;44.20;;
21128;SDS011;10722;51.910;8.352;2022-09-25T00:22:55;72.13;;;44.10;;
21128;SDS011;10722;51.910;8.352;2022-09-25T00:25:40;65.70;;;41.53;;
21128;SDS011;10722;51.910;8.352;2022-09-25T00:28:26;62.03;;;41.83;;
21128;SDS011;10722;51.910;8.352;2022-09-25T00:31:15;61.17;;;40.60;;
21128;SDS011;10722;51.910;8.352;2022-09-25T00:34:04;62.47;;;40.33;;
21128;SDS011;10722;51.910;8.352;2022-09-25T00:36:49;57.97;;;38.75;;
21128;SDS011;10722;51.910;8.352;2022-09-25T00:39:34;59.08;;;38.22;;
21128;SDS011;10722;51.910;8.352;2022-09-25T00:42:21;64.10;;;41.85;;
21128;SDS011;10722;51.910;8.352;2022-09-25T00:45:19;68.63;;;42.83;;
21128;SDS011;10722;51.910;8.352;2022-09-25T00:48:05;72.90;;;44.25;;
21128;SDS011;10722;51.910;8.352;2022-09-25T00:50:53;64.50;;;42.58;;
21128;SDS011;10722;51.910;8.352;2022-09-25T00:53:41;76.45;;;44.75;;
21128;SDS011;10722;51.910;8.352;2022-09-25T00:56:27;87.20;;;47.45;;
21128;SDS011;10722;51.910;8.352;2022-09-25T00:59:16;88.45;;;47.90;;
21128;SDS011;10722;51.910;8.352;2022-09-25T01:02:05;65.50;;;39.70;;
21128;SDS011;10722;51.910;8.352;2022-09-25T01:04:55;79.53;;;44.53;;
21128;SDS011;10722;51.910;8.352;2022-09-25T01:07:44;67.60;;;41.58;;
21128;SDS011;10722;51.910;8.352;2022-09-25T01:10:32;62.97;;;41.05;;
21128;SDS011;10722;51.910;8.352;2022-09-25T01:13:17;72.32;;;43.60;;
21128;SDS011;10722;51.910;8.352;2022-09-25T01:16:06;59.65;;;38.78;;
21128;SDS011;10722;51.910;8.352;2022-09-25T01:25:18;56.47;;;34.78;;
21128;SDS011;10722;51.910;8.352;2022-09-25T01:31:01;49.95;;;31.83;;
21128;SDS011;10722;51.910;8.352;2022-09-25T01:33:54;49.10;;;31.05;;
21128;SDS011;10722;51.910;8.352;2022-09-25T01:36:46;51.83;;;30.30;;
21128;SDS011;10722;51.910;8.352;2022-09-25T01:39:37;49.35;;;30.15;;
21128;SDS011;10722;51.910;8.352;2022-09-25T01:42:30;48.83;;;28.85;;
21128;SDS011;10722;51.910;8.352;2022-09-25T01:45:22;45.78;;;27.58;;
21128;SDS011;10722;51.910;8.352;2022-09-25T01:48:22;41.20;;;26.48;;
21128;SDS011;10722;51.910;8.352;2022-09-25T01:51:15;45.95;;;27.55;;
21128;SDS011;10722;51.910;8.352;2022-09-25T01:54:09;43.25;;;24.88;;
21128;SDS011;10722;51.910;8.352;2022-09-25T02:00:23;40.33;;;22.80;;
21128;SDS011;10722;51.910;8.352;2022-09-25T02:03:16;36.15;;;21.63;;
21128;SDS011;10722;51.910;8.352;2022-09-25T02:06:08;38.17;;;20.90;;
21128;SDS011;10722;51.910;8.352;2022-09-25T02:08:59;38.45;;;21.10;;
21128;SDS011;10722;51.910;8.352;2022-09-25T02:11:49;38.58;;;20.42;;
21128;SDS011;10722;51.910;8.352;2022-09-25T02:14:44;34.03;;;19.05;;
21128;SDS011;10722;51.910;8.352;2022-09-25T02:17:37;31.90;;;18.27;;
21128;SDS011;10722;51.910;8.352;2022-09-25T02:20:29;34.83;;;18.73;;
21128;SDS011;10722;51.910;8.352;2022-09-25T02:23:24;41.40;;;18.30;;
21128;SDS011;10722;51.910;8.352;2022-09-25T02:26:29;31.30;;;16.92;;
21128;SDS011;10722;51.910;8.352;2022-09-25T02:29:17;37.67;;;20.52;;
21128;SDS011;10722;51.910;8.352;2022-09-25T02:32:07;35.80;;;16.80;;
21128;SDS011;10722;51.910;8.352;2022-09-25T02:34:55;35.97;;;16.33;;
21128;SDS011;10722;51.910;8.352;2022-09-25T02:37:42;31.60;;;15.98;;
21128;SDS011;10722;51.910;8.352;2022-09-25T02:40:36;32.33;;;14.43;;
21128;SDS011;10722;51.910;8.352;2022-09-25T02:59:09;28.75;;;13.38;;
21128;SDS011;10722;51.910;8.352;2022-09-25T03:02:00;29.98;;;12.77;;
21128;SDS011;10722;51.910;8.352;2022-09-25T03:04:46;27.63;;;12.75;;
21128;SDS011;10722;51.910;8.352;2022-09-25T03:07:33;29.48;;;11.85;;
21128;SDS011;10722;51.910;8.352;2022-09-25T03:10:18;24.67;;;11.18;;
21128;SDS011;10722;51.910;8.352;2022-09-25T03:13:18;26.17;;;11.40;;
21128;SDS011;10722;51.910;8.352;2022-09-25T03:16:09;25.83;;;10.70;;
21128;SDS011;10722;51.910;8.352;2022-09-25T03:19:06;27.27;;;10.38;;
21128;SDS011;10722;51.910;8.352;2022-09-25T03:21:51;23.58;;;10.07;;
21128;SDS011;10722;51.910;8.352;2022-09-25T03:24:36;26.42;;;9.80;;
21128;SDS011;10722;51.910;8.352;2022-09-25T03:27:21;27.85;;;10.60;;
21128;SDS011;10722;51.910;8.352;2022-09-25T03:30:07;29.08;;;10.85;;
21128;SDS011;10722;51.910;8.352;2022-09-25T03:32:52;26.58;;;9.63;;
21128;SDS011;10722;51.910;8.352;2022-09-25T03:35:37;23.52;;;9.07;;
21128;SDS011;10722;51.910;8.352;2022-09-25T03:38:23;24.95;;;9.48;;
21128;SDS011;10722;51.910;8.352;2022-09-25T03:41:09;25.00;;;8.52;;
21128;SDS011;10722;51.910;8.352;2022-09-25T03:43:55;26.35;;;8.75;;
21128;SDS011;10722;51.910;8.352;2022-09-25T03:46:41;25.35;;;9.43;;
21128;SDS011;10722;51.910;8.352;2022-09-25T03:49:26;23.92;;;9.73;;
21128;SDS011;10722;51.910;8.352;2022-09-25T03:52:11;29.27;;;10.52;;
21128;SDS011;10722;51.910;8.352;2022-09-25T03:54:56;27.10;;;8.95;;
21128;SDS011;10722;51.910;8.352;2022-09-25T03:57:41;25.02;;;9.45;;
21128;SDS011;10722;51.910;8.352;2022-09-25T04:00:26;28.10;;;8.90;;
21128;SDS011;10722;51.910;8.352;2022-09-25T04:03:12;24.77;;;9.00;;
21128;SDS011;10722;51.910;8.352;2022-09-25T04:06:01;31.95;;;9.60;;
21128;SDS011;10722;51.910;8.352;2022-09-25T04:08:48;26.98;;;9.38;;
21128;SDS011;10722;51.910;8.352;2022-09-25T04:11:34;27.05;;;9.13;;
21128;SDS011;10722;51.910;8.352;2022-09-25T04:14:19;26.23;;;8.65;;
21128;SDS011;10722;51.910;8.352;2022-09-25T04:17:04;22.90;;;8.35;;
21128;SDS011;10722;51.910;8.352;2022-09-25T04:19:49;21.27;;;8.05;;
21128;SDS011;10722;51.910;8.352;2022-09-25T04:22:34;26.08;;;8.90;;
21128;SDS011;10722;51.910;8.352;2022-09-25T04:25:19;24.55;;;7.78;;
21128;SDS011;10722;51.910;8.352;2022-09-25T04:28:08;28.00;;;8.20;;
21128;SDS011;10722;51.910;8.352;2022-09-25T04:30:53;28.05;;;8.63;;
21128;SDS011;10722;51.910;8.352;2022-09-25T04:33:38;24.35;;;8.52;;
21128;SDS011;10722;51.910;8.352;2022-09-25T04:36:23;28.77;;;9.15;;
21128;SDS011;10722;51.910;8.352;2022-09-25T04:39:08;30.27;;;8.88;;
21128;SDS011;10722;51.910;8.352;2022-09-25T04:41:53;24.27;;;8.98;;
21128;SDS011;10722;51.910;8.352;2022-09-25T04:44:38;28.15;;;9.38;;
21128;SDS011;10722;51.910;8.352;2022-09-25T04:47:24;25.15;;;8.70;;
21128;SDS011;10722;51.910;8.352;2022-09-25T04:50:11;29.25;;;9.20;;
21128;SDS011;10722;51.910;8.352;2022-09-25T04:52:56;30.17;;;10.00;;
21128;SDS011;10722;51.910;8.352;2022-09-25T04:55:42;22.10;;;9.10;;
21128;SDS011;10722;51.910;8.352;2022-09-25T04:58:27;27.13;;;9.25;;
21128;SDS011;10722;51.910;8.352;2022-09-25T05:01:12;22.30;;;8.15;;
21128;SDS011;10722;51.910;8.352;2022-09-25T05:03:58;28.15;;;8.90;;
21128;SDS011;10722;51.910;8.352;2022-09-25T05:06:48;25.38;;;8.23;;
21128;SDS011;10722;51.910;8.352;2022-09-25T05:09:33;29.35;;;8.57;;
21128;SDS011;10722;51.910;8.352;2022-09-25T05:12:18;23.13;;;8.15;;
21128;SDS011;10722;51.910;8.352;2022-09-25T05:15:03;20.65;;;7.50;;
21128;SDS011;10722;51.910;8.352;2022-09-25T05:17:49;24.60;;;7.85;;
21128;SDS011;10722;51.910;8.352;2022-09-25T05:20:34;26.17;;;8.05;;
21128;SDS011;10722;51.910;8.352;2022-09-25T05:23:20;29.67;;;8.55;;
21128;SDS011;10722;51.910;8.352;2022-09-25T05:26:05;26.45;;;7.93;;
21128;SDS011;10722;51.910;8.352;2022-09-25T05:28:51;24.90;;;7.38;;
21128;SDS011;10722;51.910;8.352;2022-09-25T05:31:36;24.35;;;7.22;;
21128;SDS011;10722;51.910;8.352;2022-09-25T05:34:21;21.55;;;7.40;;
21128;SDS011;10722;51.910;8.352;2022-09-25T05:37:06;20.73;;;6.95;;
21128;SDS011;10722;51.910;8.352;2022-09-25T05:39:51;19.60;;;7.45;;
21128;SDS011;10722;51.910;8.352;2022-09-25T05:42:36;26.63;;;7.20;;
21128;SDS011;10722;51.910;8.352;2022-09-25T05:45:22;21.73;;;7.20;;
21128;SDS011;10722;51.910;8.352;2022-09-25T05:48:07;20.85;;;7.15;;
21128;SDS011;10722;51.910;8.352;2022-09-25T05:50:53;30.17;;;7.63;;
21128;SDS011;10722;51.910;8.352;2022-09-25T05:53:40;22.00;;;7.22;;
21128;SDS011;10722;51.910;8.352;2022-09-25T05:56:25;25.48;;;6.97;;
21128;SDS011;10722;51.910;8.352;2022-09-25T05:59:10;20.13;;;6.38;;
21128;SDS011;10722;51.910;8.352;2022-09-25T06:01:56;21.67;;;6.50;;
21128;SDS011;10722;51.910;8.352;2022-09-25T06:04:41;24.15;;;6.35;;
21128;SDS011;10722;51.910;8.352;2022-09-25T06:07:27;26.50;;;6.75;;
21128;SDS011;10722;51.910;8.352;2022-09-25T06:10:12;22.17;;;6.40;;
21128;SDS011;10722;51.910;8.352;2022-09-25T06:12:57;22.30;;;6.25;;
21128;SDS011;10722;51.910;8.352;2022-09-25T06:15:43;19.33;;;5.85;;
21128;SDS011;10722;51.910;8.352;2022-09-25T06:18:29;24.33;;;6.50;;
21128;SDS011;10722;51.910;8.352;2022-09-25T06:21:14;21.92;;;6.18;;
21128;SDS011;10722;51.910;8.352;2022-09-25T06:23:59;21.42;;;5.97;;
21128;SDS011;10722;51.910;8.352;2022-09-25T06:26:44;21.48;;;6.05;;
21128;SDS011;10722;51.910;8.352;2022-09-25T06:29:29;23.27;;;6.25;;
21128;SDS011;10722;51.910;8.352;2022-09-25T06:32:14;22.67;;;5.88;;
21128;SDS011;10722;51.910;8.352;2022-09-25T06:35:00;22.38;;;5.90;;
21128;SDS011;10722;51.910;8.352;2022-09-25T06:37:45;19.10;;;5.72;;
21128;SDS011;10722;51.910;8.352;2022-09-25T06:40:30;21.08;;;6.13;;
21128;SDS011;10722;51.910;8.352;2022-09-25T06:43:15;22.20;;;5.78;;
21128;SDS011;10722;51.910;8.352;2022-09-25T06:46:01;20.88;;;6.45;;
21128;SDS011;10722;51.910;8.352;2022-09-25T06:48:50;23.08;;;6.30;;
21128;SDS011;10722;51.910;8.352;2022-09-25T06:51:36;24.25;;;6.70;;
21128;SDS011;10722;51.910;8.352;2022-09-25T06:54:21;23.75;;;6.13;;
21128;SDS011;10722;51.910;8.352;2022-09-25T06:57:06;23.38;;;5.97;;
21128;SDS011;10722;51.910;8.352;2022-09-25T06:59:51;24.25;;;5.80;;
21128;SDS011;10722;51.910;8.352;2022-09-25T07:02:36;18.17;;;5.32;;
21128;SDS011;10722;51.910;8.352;2022-09-25T07:05:21;24.13;;;5.95;;
21128;SDS011;10722;51.910;8.352;2022-09-25T07:08:06;23.45;;;5.55;;
21128;SDS011;10722;51.910;8.352;2022-09-25T07:10:52;18.05;;;6.18;;
21128;SDS011;10722;51.910;8.352;2022-09-25T07:13:38;18.90;;;5.03;;
21128;SDS011;10722;51.910;8.352;2022-09-25T07:16:25;20.08;;;5.00;;
21128;SDS011;10722;51.910;8.352;2022-09-25T07:19:11;18.38;;;5.20;;
21128;SDS011;10722;51.910;8.352;2022-09-25T07:21:56;22.15;;;5.53;;
21128;SDS011;10722;51.910;8.352;2022-09-25T07:24:42;18.92;;;5.25;;
21128;SDS011;10722;51.910;8.352;2022-09-25T07:27:28;20.73;;;5.38;;
21128;SDS011;10722;51.910;8.352;2022-09-25T07:30:13;19.05;;;5.07;;
21128;SDS011;10722;51.910;8.352;2022-09-25T07:32:58;19.10;;;5.53;;
21128;SDS011;10722;51.910;8.352;2022-09-25T07:35:44;16.40;;;5.05;;
21128;SDS011;10722;51.910;8.352;2022-09-25T07:38:29;19.83;;;5.20;;
21128;SDS011;10722;51.910;8.352;2022-09-25T07:41:14;20.52;;;4.72;;
21128;SDS011;10722;51.910;8.352;2022-09-25T07:44:00;21.60;;;5.35;;
21128;SDS011;10722;51.910;8.352;2022-09-25T07:47:05;18.92;;;4.80;;
21128;SDS011;10722;51.910;8.352;2022-09-25T07:49:51;20.35;;;5.05;;
21128;SDS011;10722;51.910;8.352;2022-09-25T07:52:36;22.00;;;5.43;;
21128;SDS011;10722;51.910;8.352;2022-09-25T07:55:21;21.02;;;5.05;;
21128;SDS011;10722;51.910;8.352;2022-09-25T07:58:06;20.40;;;5.60;;
21128;SDS011;10722;51.910;8.352;2022-09-25T08:00:57;16.85;;;5.03;;
21128;SDS011;10722;51.910;8.352;2022-09-25T08:03:44;18.17;;;5.55;;
21128;SDS011;10722;51.910;8.352;2022-09-25T08:06:32;22.63;;;5.32;;
21128;SDS011;10722;51.910;8.352;2022-09-25T08:09:18;17.30;;;4.55;;
21128;SDS011;10722;51.910;8.352;2022-09-25T08:12:03;20.15;;;4.53;;
21128;SDS011;10722;51.910;8.352;2022-09-25T08:14:49;19.65;;;4.95;;
21128;SDS011;10722;51.910;8.352;2022-09-25T08:17:38;20.98;;;4.93;;
21128;SDS011;10722;51.910;8.352;2022-09-25T08:20:23;17.67;;;4.40;;
21128;SDS011;10722;51.910;8.352;2022-09-25T08:23:08;16.88;;;4.47;;
21128;SDS011;10722;51.910;8.352;2022-09-25T08:25:54;19.25;;;3.83;;
21128;SDS011;10722;51.910;8.352;2022-09-25T08:28:39;21.60;;;4.78;;
21128;SDS011;10722;51.910;8.352;2022-09-25T08:31:24;18.23;;;4.28;;
21128;SDS011;10722;51.910;8.352;2022-09-25T08:34:10;20.52;;;4.78;;
21128;SDS011;10722;51.910;8.352;2022-09-25T08:37:15;20.88;;;4.38;;
21128;SDS011;10722;51.910;8.352;2022-09-25T08:40:00;25.75;;;4.30;;
21128;SDS011;10722;51.910;8.352;2022-09-25T08:42:46;19.33;;;4.05;;
21128;SDS011;10722;51.910;8.352;2022-09-25T08:45:36;17.23;;;3.78;;
21128;SDS011;10722;51.910;8.352;2022-09-25T08:48:31;19.90;;;3.65;;
21128;SDS011;10722;51.910;8.352;2022-09-25T08:51:20;18.75;;;3.92;;
21128;SDS011;10722;51.910;8.352;2022-09-25T08:54:07;17.58;;;3.88;;
21128;SDS011;10722;51.910;8.352;2022-09-25T08:57:00;19.98;;;3.63;;
21128;SDS011;10722;51.910;8.352;2022-09-25T08:59:58;17.02;;;3.63;;
21128;SDS011;10722;51.910;8.352;2022-09-25T09:02:56;17.65;;;3.65;;
21128;SDS011;10722;51.910;8.352;2022-09-25T09:05:42;14.95;;;3.78;;
21128;SDS011;10722;51.910;8.352;2022-09-25T09:08:35;17.20;;;3.90;;
21128;SDS011;10722;51.910;8.352;2022-09-25T09:14:35;14.73;;;3.30;;
21128;SDS011;10722;51.910;8.352;2022-09-25T09:17:26;17.45;;;3.15;;
21128;SDS011;10722;51.910;8.352;2022-09-25T09:20:14;19.25;;;3.85;;
21128;SDS011;10722;51.910;8.352;2022-09-25T09:23:01;15.45;;;3.45;;
21128;SDS011;10722;51.910;8.352;2022-09-25T09:32:56;18.15;;;3.45;;
21128;SDS011;10722;51.910;8.352;2022-09-25T09:50:48;14.05;;;3.05;;
21128;SDS011;10722;51.910;8.352;2022-09-25T09:56:27;14.32;;;3.03;;
21128;SDS011;10722;51.910;8.352;2022-09-25T09:59:16;13.38;;;2.92;;
21128;SDS011;10722;51.910;8.352;2022-09-25T10:02:07;13.73;;;2.70;;
21128;SDS011;10722;51.910;8.352;2022-09-25T10:05:03;15.32;;;2.90;;
21128;SDS011;10722;51.910;8.352;2022-09-25T10:07:52;13.75;;;2.30;;
21128;SDS011;10722;51.910;8.352;2022-09-25T10:10:39;12.93;;;2.25;;
21128;SDS011;10722;51.910;8.352;2022-09-25T10:13:30;8.52;;;1.95;;
21128;SDS011;10722;51.910;8.352;2022-09-25T10:16:21;12.73;;;2.42;;
21128;SDS011;10722;51.910;8.352;2022-09-25T10:19:21;16.90;;;2.13;;
21128;SDS011;10722;51.910;8.352;2022-09-25T10:22:17;9.90;;;1.83;;
21128;SDS011;10722;51.910;8.352;2022-09-25T10:25:05;11.82;;;1.73;;
21128;SDS011;10722;51.910;8.352;2022-09-25T10:27:50;11.65;;;1.92;;
21128;SDS011;10722;51.910;8.352;2022-09-25T10:30:36;12.90;;;2.22;;
21128;SDS011;10722;51.910;8.352;2022-09-25T10:33:30;8.73;;;1.83;;
21128;SDS011;10722;51.910;8.352;2022-09-25T10:36:27;15.57;;;2.75;;
21128;SDS011;10722;51.910;8.352;2022-09-25T10:39:56;9.65;;;2.15;;
21128;SDS011;10722;51.910;8.352;2022-09-25T10:42:45;9.95;;;1.88;;
21128;SDS011;10722;51.910;8.352;2022-09-25T10:45:32;10.13;;;2.15;;
21128;SDS011;10722;51.910;8.352;2022-09-25T10:48:53;13.25;;;2.20;;
21128;SDS011;10722;51.910;8.352;2022-09-25T10:51:31;11.43;;;2.08;;
21128;SDS011;10722;51.910;8.352;2022-09-25T10:54:19;11.80;;;1.90;;
21128;SDS011;10722;51.910;8.352;2022-09-25T11:00:21;13.02;;;2.25;;
21128;SDS011;10722;51.910;8.352;2022-09-25T11:03:08;12.27;;;1.90;;
21128;SDS011;10722;51.910;8.352;2022-09-25T11:06:46;13.00;;;2.13;;
21128;SDS011;10722;51.910;8.352;2022-09-25T11:09:16;15.90;;;2.25;;
21128;SDS011;10722;51.910;8.352;2022-09-25T11:12:15;13.93;;;2.40;;
21128;SDS011;10722;51.910;8.352;2022-09-25T11:15:06;16.73;;;2.15;;
21128;SDS011;10722;51.910;8.352;2022-09-25T11:17:55;14.95;;;2.50;;
21128;SDS011;10722;51.910;8.352;2022-09-25T11:20:40;15.10;;;2.17;;
21128;SDS011;10722;51.910;8.352;2022-09-25T11:27:10;12.00;;;1.95;;
21128;SDS011;10722;51.910;8.352;2022-09-25T11:39:09;10.05;;;1.75;;
21128;SDS011;10722;51.910;8.352;2022-09-25T11:42:05;11.15;;;1.80;;
21128;SDS011;10722;51.910;8.352;2022-09-25T11:45:18;12.65;;;1.92;;
21128;SDS011;10722;51.910;8.352;2022-09-25T12:00:19;10.65;;;1.73;;
21128;SDS011;10722;51.910;8.352;2022-09-25T12:21:04;9.45;;;1.75;;
21128;SDS011;10722;51.910;8.352;2022-09-25T12:23:57;11.45;;;1.98;;
21128;SDS011;10722;51.910;8.352;2022-09-25T12:27:22;12.52;;;2.10;;
21128;SDS011;10722;51.910;8.352;2022-09-25T12:30:38;10.35;;;1.73;;
21128;SDS011;10722;51.910;8.352;2022-09-25T12:36:23;10.63;;;1.98;;
21128;SDS011;10722;51.910;8.352;2022-09-25T12:39:33;11.95;;;1.80;;
21128;SDS011;10722;51.910;8.352;2022-09-25T12:45:30;9.13;;;1.60;;
21128;SDS011;10722;51.910;8.352;2022-09-25T12:51:20;12.18;;;2.10;;
21128;SDS011;10722;51.910;8.352;2022-09-25T12:57:38;10.23;;;1.75;;
21128;SDS011;10722;51.910;8.352;2022-09-25T13:00:29;12.52;;;1.70;;
21128;SDS011;10722;51.910;8.352;2022-09-25T13:03:21;10.85;;;1.80;;
21128;SDS011;10722;51.910;8.352;2022-09-25T13:09:29;9.48;;;1.70;;
21128;SDS011;10722;51.910;8.352;2022-09-25T13:15:24;12.30;;;1.80;;
21128;SDS011;10722;51.910;8.352;2022-09-25T13:18:18;9.68;;;1.50;;
21128;SDS011;10722;51.910;8.352;2022-09-25T13:21:25;9.45;;;1.73;;
21128;SDS011;10722;51.910;8.352;2022-09-25T13:24:15;10.60;;;1.50;;
21128;SDS011;10722;51.910;8.352;2022-09-25T13:27:02;9.45;;;1.70;;
21128;SDS011;10722;51.910;8.352;2022-09-25T13:29:52;10.98;;;1.60;;
21128;SDS011;10722;51.910;8.352;2022-09-25T13:32:40;12.77;;;1.70;;
21128;SDS011;10722;51.910;8.352;2022-09-25T13:35:34;12.95;;;1.98;;
21128;SDS011;10722;51.910;8.352;2022-09-25T13:38:19;9.00;;;1.33;;
21128;SDS011;10722;51.910;8.352;2022-09-25T13:41:11;15.57;;;3.08;;
21128;SDS011;10722;51.910;8.352;2022-09-25T14:05:28;7.22;;;1.20;;
21128;SDS011;10722;51.910;8.352;2022-09-25T14:08:15;6.40;;;1.33;;
21128;SDS011;10722;51.910;8.352;2022-09-25T14:11:01;8.85;;;1.52;;
21128;SDS011;10722;51.910;8.352;2022-09-25T14:13:50;8.07;;;1.25;;
21128;SDS011;10722;51.910;8.352;2022-09-25T14:16:40;7.00;;;1.20;;
21128;SDS011;10722;51.910;8.352;2022-09-25T14:19:31;6.38;;;1.00;;
21128;SDS011;10722;51.910;8.352;2022-09-25T14:28:24;9.95;;;1.70;;
21128;SDS011;10722;51.910;8.352;2022-09-25T14:37:28;9.27;;;1.40;;
21128;SDS011;10722;51.910;8.352;2022-09-25T14:40:30;7.50;;;1.38;;
21128;SDS011;10722;51.910;8.352;2022-09-25T14:46:29;6.45;;;1.20;;
21128;SDS011;10722;51.910;8.352;2022-09-25T14:52:18;9.63;;;1.30;;
21128;SDS011;10722;51.910;8.352;2022-09-25T14:55:06;9.52;;;1.52;;
21128;SDS011;10722;51.910;8.352;2022-09-25T14:57:58;11.63;;;1.30;;
21128;SDS011;10722;51.910;8.352;2022-09-25T15:00:45;13.43;;;1.58;;
21128;SDS011;10722;51.910;8.352;2022-09-25T15:03:34;8.23;;;1.52;;
21128;SDS011;10722;51.910;8.352;2022-09-25T15:06:25;9.75;;;1.50;;
21128;SDS011;10722;51.910;8.352;2022-09-25T15:12:30;9.88;;;1.60;;
21128;SDS011;10722;51.910;8.352;2022-09-25T15:15:17;9.02;;;1.65;;
21128;SDS011;10722;51.910;8.352;2022-09-25T15:18:02;7.32;;;1.73;;
21128;SDS011;10722;51.910;8.352;2022-09-25T15:20:48;5.60;;;1.30;;
21128;SDS011;10722;51.910;8.352;2022-09-25T15:23:33;8.93;;;1.27;;
21128;SDS011;10722;51.910;8.352;2022-09-25T15:26:20;7.05;;;1.35;;
21128;SDS011;10722;51.910;8.352;2022-09-25T15:29:13;8.25;;;1.20;;
21128;SDS011;10722;51.910;8.352;2022-09-25T15:32:05;3.80;;;1.25;;
21128;SDS011;10722;51.910;8.352;2022-09-25T15:34:59;5.93;;;1.20;;
21128;SDS011;10722;51.910;8.352;2022-09-25T15:38:11;7.00;;;1.20;;
21128;SDS011;10722;51.910;8.352;2022-09-25T15:40:58;6.55;;;1.35;;
21128;SDS011;10722;51.910;8.352;2022-09-25T15:43:43;7.93;;;1.27;;
21128;SDS011;10722;51.910;8.352;2022-09-25T15:46:34;8.95;;;1.05;;
21128;SDS011;10722;51.910;8.352;2022-09-25T15:49:26;9.57;;;1.38;;
21128;SDS011;10722;51.910;8.352;2022-09-25T15:52:25;7.13;;;1.00;;
21128;SDS011;10722;51.910;8.352;2022-09-25T15:55:13;7.65;;;1.20;;
21128;SDS011;10722;51.910;8.352;2022-09-25T15:58:06;4.88;;;1.00;;
21128;SDS011;10722;51.910;8.352;2022-09-25T16:00:58;10.35;;;1.92;;
21128;SDS011;10722;51.910;8.352;2022-09-25T16:03:46;8.30;;;1.50;;
21128;SDS011;10722;51.910;8.352;2022-09-25T16:06:37;7.38;;;1.92;;
21128;SDS011;10722;51.910;8.352;2022-09-25T16:18:28;6.32;;;1.30;;
21128;SDS011;10722;51.910;8.352;2022-09-25T16:24:26;8.73;;;1.10;;
21128;SDS011;10722;51.910;8.352;2022-09-25T16:27:19;3.95;;;1.10;;
21128;SDS011;10722;51.910;8.352;2022-09-25T16:30:19;10.25;;;1.27;;
21128;SDS011;10722;51.910;8.352;2022-09-25T16:33:12;6.35;;;1.10;;
21128;SDS011;10722;51.910;8.352;2022-09-25T16:36:07;7.63;;;1.13;;
21128;SDS011;10722;51.910;8.352;2022-09-25T16:41:54;6.97;;;1.20;;
21128;SDS011;10722;51.910;8.352;2022-09-25T16:44:40;10.20;;;1.30;;
21128;SDS011;10722;51.910;8.352;2022-09-25T16:47:27;5.97;;;1.10;;
21128;SDS011;10722;51.910;8.352;2022-09-25T16:50:13;7.18;;;1.10;;
21128;SDS011;10722;51.910;8.352;2022-09-25T16:52:59;4.38;;;1.00;;
21128;SDS011;10722;51.910;8.352;2022-09-25T16:55:44;4.65;;;1.23;;
21128;SDS011;10722;51.910;8.352;2022-09-25T16:58:31;5.47;;;1.10;;
21128;SDS011;10722;51.910;8.352;2022-09-25T17:01:19;8.70;;;1.60;;
21128;SDS011;10722;51.910;8.352;2022-09-25T17:04:07;5.47;;;1.10;;
21128;SDS011;10722;51.910;8.352;2022-09-25T17:06:52;7.55;;;1.23;;
21128;SDS011;10722;51.910;8.352;2022-09-25T17:09:38;7.63;;;1.40;;
21128;SDS011;10722;51.910;8.352;2022-09-25T17:12:23;7.72;;;1.60;;
21128;SDS011;10722;51.910;8.352;2022-09-25T17:15:13;14.23;;;1.80;;
21128;SDS011;10722;51.910;8.352;2022-09-25T17:18:25;7.72;;;1.60;;
21128;SDS011;10722;51.910;8.352;2022-09-25T17:21:10;11.20;;;1.40;;
21128;SDS011;10722;51.910;8.352;2022-09-25T17:23:58;8.02;;;1.50;;
21128;SDS011;10722;51.910;8.352;2022-09-25T17:26:43;6.25;;;1.40;;
21128;SDS011;10722;51.910;8.352;2022-09-25T17:29:28;8.23;;;1.40;;
21128;SDS011;10722;51.910;8.352;2022-09-25T17:32:14;10.20;;;1.45;;
21128;SDS011;10722;51.910;8.352;2022-09-25T17:34:59;7.95;;;1.70;;
21128;SDS011;10722;51.910;8.352;2022-09-25T17:37:45;8.30;;;1.30;;
21128;SDS011;10722;51.910;8.352;2022-09-25T17:40:30;8.43;;;1.40;;
21128;SDS011;10722;51.910;8.352;2022-09-25T17:43:16;7.90;;;1.63;;
21128;SDS011;10722;51.910;8.352;2022-09-25T17:46:02;9.00;;;1.42;;
21128;SDS011;10722;51.910;8.352;2022-09-25T17:48:47;6.03;;;1.40;;
21128;SDS011;10722;51.910;8.352;2022-09-25T17:51:38;5.72;;;1.33;;
21128;SDS011;10722;51.910;8.352;2022-09-25T17:54:23;13.73;;;1.70;;
21128;SDS011;10722;51.910;8.352;2022-09-25T17:57:08;11.10;;;1.70;;
21128;SDS011;10722;51.910;8.352;2022-09-25T17:59:53;10.50;;;1.65;;
21128;SDS011;10722;51.910;8.352;2022-09-25T18:02:38;8.35;;;1.50;;
21128;SDS011;10722;51.910;8.352;2022-09-25T18:05:25;13.35;;;1.67;;
21128;SDS011;10722;51.910;8.352;2022-09-25T18:08:11;8.15;;;1.50;;
21128;SDS011;10722;51.910;8.352;2022-09-25T18:10:57;7.43;;;1.33;;
21128;SDS011;10722;51.910;8.352;2022-09-25T18:13:42;7.13;;;1.33;;
21128;SDS011;10722;51.910;8.352;2022-09-25T18:16:29;8.50;;;1.92;;
21128;SDS011;10722;51.910;8.352;2022-09-25T18:19:16;9.60;;;1.55;;
21128;SDS011;10722;51.910;8.352;2022-09-25T18:22:02;10.32;;;1.67;;
21128;SDS011;10722;51.910;8.352;2022-09-25T18:24:48;10.95;;;1.70;;
21128;SDS011;10722;51.910;8.352;2022-09-25T18:27:34;9.95;;;1.50;;
21128;SDS011;10722;51.910;8.352;2022-09-25T18:30:23;12.18;;;1.85;;
21128;SDS011;10722;51.910;8.352;2022-09-25T18:33:08;5.50;;;1.83;;
21128;SDS011;10722;51.910;8.352;2022-09-25T18:35:54;11.32;;;1.95;;
21128;SDS011;10722;51.910;8.352;2022-09-25T18:38:40;7.93;;;1.70;;
21128;SDS011;10722;51.910;8.352;2022-09-25T18:41:25;8.18;;;1.60;;
21128;SDS011;10722;51.910;8.352;2022-09-25T18:44:10;6.10;;;1.60;;
21128;SDS011;10722;51.910;8.352;2022-09-25T18:46:55;8.68;;;2.30;;
21128;SDS011;10722;51.910;8.352;2022-09-25T18:49:40;10.13;;;2.10;;
21128;SDS011;10722;51.910;8.352;2022-09-25T18:52:25;7.78;;;1.77;;
21128;SDS011;10722;51.910;8.352;2022-09-25T18:55:11;8.07;;;1.77;;
21128;SDS011;10722;51.910;8.352;2022-09-25T18:57:55;8.77;;;1.70;;
21128;SDS011;10722;51.910;8.352;2022-09-25T19:00:40;8.32;;;1.70;;
21128;SDS011;10722;51.910;8.352;2022-09-25T19:03:26;5.72;;;1.70;;
21128;SDS011;10722;51.910;8.352;2022-09-25T19:06:11;12.00;;;2.00;;
21128;SDS011;10722;51.910;8.352;2022-09-25T19:08:56;8.50;;;2.00;;
21128;SDS011;10722;51.910;8.352;2022-09-25T19:11:42;11.90;;;2.22;;
21128;SDS011;10722;51.910;8.352;2022-09-25T19:14:26;6.63;;;1.70;;
21128;SDS011;10722;51.910;8.352;2022-09-25T19:17:12;11.25;;;2.10;;
21128;SDS011;10722;51.910;8.352;2022-09-25T19:19:58;11.77;;;2.00;;
21128;SDS011;10722;51.910;8.352;2022-09-25T19:22:43;10.98;;;2.20;;
21128;SDS011;10722;51.910;8.352;2022-09-25T19:25:29;8.23;;;2.22;;
21128;SDS011;10722;51.910;8.352;2022-09-25T19:28:14;11.07;;;2.20;;
21128;SDS011;10722;51.910;8.352;2022-09-25T19:33:46;7.68;;;2.30;;
21128;SDS011;10722;51.910;8.352;2022-09-25T19:36:32;9.60;;;2.20;;
21128;SDS011;10722;51.910;8.352;2022-09-25T19:39:18;9.50;;;2.10;;
21128;SDS011;10722;51.910;8.352;2022-09-25T19:42:03;13.63;;;2.72;;
21128;SDS011;10722;51.910;8.352;2022-09-25T19:44:48;12.63;;;2.75;;